Time;durP1;ratioP1;P1;durP2;ratioP2;P2;SDS_P1;SDS_P2;PMS_P1;PMS_P2;Temp;Humidity;BMP_temperature;BMP_pressure;BME280_temperature;BME280_humidity;BME280_pressure;Samples;Min_cycle;Max_cycle;Signal;HPM_P1;HPM_P2
2022/05/19 00:01:07;;;;;;;2.75;1.00;;;13.10;99.90;;;;;;4991784;28;20031;-73
2022/05/19 00:03:36;;;;;;;2.47;1.00;;;13.00;99.90;;;;;;4991686;28;20395;-73
2022/05/19 00:06:05;;;;;;;2.28;0.80;;;13.00;99.90;;;;;;4992979;28;20030;-73
2022/05/19 00:08:33;;;;;;;3.78;0.95;;;13.10;99.90;;;;;;4992538;28;20118;-73
2022/05/19 00:11:04;;;;;;;2.65;0.80;;;13.30;99.90;;;;;;4991728;28;20026;-73
2022/05/19 00:13:32;;;;;;;3.28;0.90;;;13.30;99.90;;;;;;4993453;28;20432;-73
2022/05/19 00:16:00;;;;;;;2.35;0.98;;;13.30;99.90;;;;;;4994812;28;20026;-73
2022/05/19 00:18:27;;;;;;;3.33;1.17;;;13.30;99.90;;;;;;4994882;28;20109;-73
2022/05/19 00:20:55;;;;;;;2.17;0.52;;;13.40;99.90;;;;;;4996269;28;20061;-73
2022/05/19 00:23:22;;;;;;;3.42;0.63;;;13.50;99.90;;;;;;4996209;28;20022;-73
2022/05/19 00:25:50;;;;;;;3.00;0.88;;;13.50;99.90;;;;;;4996170;28;20101;-73
2022/05/19 00:28:17;;;;;;;1.33;0.70;;;13.60;99.90;;;;;;4994737;28;20517;-72
2022/05/19 00:30:44;;;;;;;2.05;0.50;;;13.70;99.90;;;;;;4996084;28;20041;-73
2022/05/19 00:33:13;;;;;;;3.95;1.27;;;13.80;99.90;;;;;;4995996;28;20057;-74
2022/05/19 00:35:41;;;;;;;3.53;0.90;;;13.90;99.90;;;;;;4996030;28;20057;-74
2022/05/19 00:38:09;;;;;;;3.47;0.68;;;13.90;99.90;;;;;;4995861;28;20030;-75
2022/05/19 00:40:37;;;;;;;2.53;1.10;;;13.80;99.90;;;;;;4994606;28;20480;-74
2022/05/19 00:43:05;;;;;;;2.70;0.60;;;13.80;99.90;;;;;;4994582;28;20037;-74
2022/05/19 00:45:57;;;;;;;3.88;0.80;;;13.90;99.90;;;;;;4995859;28;20029;-74
2022/05/19 00:48:31;;;;;;;4.03;1.38;;;13.90;99.90;;;;;;4994283;28;20037;-74
2022/05/19 00:51:02;;;;;;;3.47;0.60;;;14.00;99.90;;;;;;4995662;28;20142;-73
2022/05/19 00:53:36;;;;;;;3.65;0.85;;;14.20;99.90;;;;;;4995624;28;20026;-73
2022/05/19 00:56:10;;;;;;;3.80;0.82;;;14.40;99.90;;;;;;4995838;28;20029;-73
2022/05/19 00:58:44;;;;;;;3.38;0.77;;;14.40;99.90;;;;;;4994269;28;20042;-73
2022/05/19 01:01:13;;;;;;;2.95;0.70;;;14.40;99.90;;;;;;4996124;28;20018;-73
2022/05/19 01:03:46;;;;;;;3.83;0.93;;;14.50;99.90;;;;;;4995516;28;20081;-74
2022/05/19 01:06:17;;;;;;;2.50;0.70;;;14.50;99.90;;;;;;4995528;28;20077;-73
2022/05/19 01:08:56;;;;;;;1.65;1.15;;;14.60;99.90;;;;;;4995369;28;20469;-73
2022/05/19 01:11:24;;;;;;;2.08;0.70;;;14.80;99.90;;;;;;4994534;28;20117;-74
2022/05/19 01:13:51;;;;;;;2.58;0.70;;;15.00;99.90;;;;;;4995206;28;20390;-74
2022/05/19 01:16:19;;;;;;;2.30;0.60;;;15.10;99.90;;;;;;4993893;28;20026;-74
2022/05/19 01:18:47;;;;;;;4.25;1.10;;;15.20;99.90;;;;;;4995679;28;20034;-74
2022/05/19 01:21:20;;;;;;;2.22;0.60;;;15.20;99.90;;;;;;4995243;28;20033;-74
2022/05/19 01:24:09;;;;;;;2.38;0.80;;;15.10;99.90;;;;;;4993928;28;20550;-73
2022/05/19 01:26:47;;;;;;;2.17;0.70;;;15.10;99.90;;;;;;4994738;28;20120;-73
2022/05/19 01:29:18;;;;;;;4.32;0.90;;;15.30;99.90;;;;;;4994920;28;20360;-73
2022/05/19 01:31:47;;;;;;;3.78;1.00;;;15.60;99.90;;;;;;4993752;28;20048;-73
2022/05/19 01:34:16;;;;;;;3.35;0.90;;;15.80;99.90;;;;;;4994889;28;20037;-73
2022/05/19 01:36:44;;;;;;;2.88;0.70;;;16.00;99.90;;;;;;4993502;28;20061;-73
2022/05/19 01:39:21;;;;;;;5.10;0.80;;;16.10;99.90;;;;;;4994668;28;20033;-74
2022/05/19 01:42:33;;;;;;;3.28;0.63;;;16.20;99.90;;;;;;4993411;28;20367;-74
2022/05/19 01:45:35;;;;;;;2.35;0.70;;;16.30;99.90;;;;;;4994999;28;20033;-73
2022/05/19 01:48:15;;;;;;;1.90;0.70;;;16.20;99.90;;;;;;4994561;28;20113;-73
2022/05/19 01:50:49;;;;;;;5.30;1.35;;;16.40;99.90;;;;;;4994619;28;20027;-74
2022/05/19 01:53:27;;;;;;;3.15;0.80;;;16.50;99.90;;;;;;4993339;28;20029;-74
2022/05/19 01:56:10;;;;;;;3.10;0.75;;;16.60;99.90;;;;;;4994470;28;20072;-72
2022/05/19 01:58:56;;;;;;;5.20;1.10;;;16.90;99.90;;;;;;4994549;28;20022;-71
2022/05/19 02:01:28;;;;;;;4.32;0.90;;;17.10;99.90;;;;;;4994478;28;20023;-72
2022/05/19 02:04:28;;;;;;;5.32;0.95;;;17.30;99.90;;;;;;4994480;28;20106;-72
2022/05/19 02:07:02;;;;;;;2.80;0.68;;;17.30;99.90;;;;;;4989905;28;20030;-72
2022/05/19 02:09:45;;;;;;;1.90;0.70;;;17.10;99.90;;;;;;4992679;28;20410;-72
2022/05/19 02:12:12;;;;;;;3.22;0.93;;;16.90;99.90;;;;;;4994418;28;20387;-72
2022/05/19 02:14:50;;;;;;;3.03;0.85;;;16.60;99.90;;;;;;4994147;28;20105;-72
2022/05/19 02:17:21;;;;;;;2.80;0.70;;;16.60;99.90;;;;;;4994224;28;20038;-72
2022/05/19 02:19:54;;;;;;;4.93;0.90;;;17.00;99.90;;;;;;4994165;28;20503;-71
2022/05/19 02:22:25;;;;;;;5.40;1.65;;;17.40;99.90;;;;;;4994439;28;20018;-72
2022/05/19 02:25:05;;;;;;;3.42;2.05;;;17.30;99.90;;;;;;4992784;28;20061;-72
2022/05/19 02:28:15;;;;;;;3.50;0.70;;;17.10;99.90;;;;;;4992669;28;20497;-72
2022/05/19 02:30:42;;;;;;;2.92;0.70;;;16.90;99.90;;;;;;4993870;28;20101;-72
2022/05/19 02:33:13;;;;;;;2.30;0.77;;;16.90;99.90;;;;;;4992690;28;20505;-73
2022/05/19 02:35:40;;;;;;;;;;;17.20;99.90;;;;;;4994266;28;20026;-73
2022/05/19 02:38:08;;;;;;;8.13;1.42;;;17.50;99.90;;;;;;4991861;28;19906;-72
2022/05/19 02:40:37;;;;;;;1.52;0.65;;;17.50;99.90;;;;;;4992559;28;20034;-72
2022/05/19 02:43:06;;;;;;;1.92;0.90;;;17.30;99.90;;;;;;4992575;28;20125;-72
2022/05/19 02:45:34;;;;;;;3.25;0.70;;;17.50;99.90;;;;;;4993710;28;20030;-72
2022/05/19 02:48:02;;;;;;;3.10;0.57;;;17.80;99.90;;;;;;4993675;28;20122;-72
2022/05/19 02:50:30;;;;;;;3.10;0.75;;;17.80;99.90;;;;;;4992422;28;20025;-73
2022/05/19 02:52:57;;;;;;;3.05;0.80;;;17.80;99.90;;;;;;4993669;28;20363;-72
2022/05/19 02:55:25;;;;;;;3.17;0.80;;;17.90;99.90;;;;;;4992350;28;20018;-72
2022/05/19 02:57:53;;;;;;;5.18;0.88;;;18.00;99.90;;;;;;4992151;28;20042;-71
2022/05/19 03:00:24;;;;;;;2.25;0.52;;;18.00;99.90;;;;;;4992252;28;20033;-71
2022/05/19 03:02:54;;;;;;;2.65;0.70;;;18.10;99.90;;;;;;4993642;28;20399;-71
2022/05/19 03:05:24;;;;;;;1.67;0.70;;;18.20;99.90;;;;;;4993580;28;20140;-72
2022/05/19 03:07:51;;;;;;;;;;;18.10;99.90;;;;;;4993625;28;20272;-70
2022/05/19 03:10:19;;;;;;;4.32;0.77;;;18.20;99.90;;;;;;4993769;28;20040;-70
2022/05/19 03:12:46;;;;;;;1.95;0.50;;;18.20;99.90;;;;;;4993389;28;20084;-72
2022/05/19 03:15:14;;;;;;;3.35;0.50;;;18.20;99.90;;;;;;4993449;28;20428;-71
2022/05/19 03:17:41;;;;;;;2.53;0.75;;;18.30;99.90;;;;;;4993385;28;20049;-71
2022/05/19 03:20:10;;;;;;;2.65;0.50;;;18.40;99.90;;;;;;4993448;28;20510;-72
2022/05/19 03:22:37;;;;;;;3.60;0.60;;;18.40;99.90;;;;;;4993336;28;20030;-72
2022/05/19 03:25:06;;;;;;;1.83;0.50;;;18.50;99.90;;;;;;4993356;28;20109;-70
2022/05/19 03:27:34;;;;;;;2.90;0.50;;;18.50;99.90;;;;;;4993510;28;20475;-71
2022/05/19 03:30:02;;;;;;;4.03;0.73;;;18.70;99.90;;;;;;4993368;28;20046;-71
2022/05/19 03:32:29;;;;;;;1.55;0.50;;;18.60;99.90;;;;;;4993561;28;20018;-70
2022/05/19 03:34:56;;;;;;;2.47;0.47;;;18.50;99.90;;;;;;4993327;28;20454;-71
2022/05/19 03:37:24;;;;;;;1.98;0.40;;;18.40;99.90;;;;;;4991905;28;20023;-70
2022/05/19 03:39:51;;;;;;;1.95;0.20;;;18.20;99.90;;;;;;4991927;28;20504;-71
2022/05/19 03:42:18;;;;;;;2.80;0.40;;;18.20;99.90;;;;;;4993193;28;20320;-71
2022/05/19 03:44:46;;;;;;;1.95;0.40;;;18.50;99.90;;;;;;4991991;28;20030;-72
2022/05/19 03:47:13;;;;;;;2.97;0.70;;;18.80;99.90;;;;;;4993093;28;20034;-70
2022/05/19 03:49:40;;;;;;;1.63;0.43;;;18.80;99.90;;;;;;4994471;28;20069;-72
2022/05/19 03:52:08;;;;;;;3.08;0.77;;;18.80;99.90;;;;;;4996888;28;20026;-72
2022/05/19 03:54:35;;;;;;;3.67;0.75;;;18.70;99.90;;;;;;4995545;28;20022;-72
2022/05/19 03:57:03;;;;;;;1.20;0.40;;;18.70;99.90;;;;;;4996981;28;20027;-71
2022/05/19 03:59:30;;;;;;;2.75;0.57;;;18.80;99.90;;;;;;4995463;28;20034;-72
2022/05/19 04:01:57;;;;;;;2.25;0.47;;;18.60;99.90;;;;;;4995480;28;20034;-72
2022/05/19 04:04:25;;;;;;;2.88;0.40;;;18.80;99.90;;;;;;4996569;28;20034;-72
2022/05/19 04:06:52;;;;;;;3.88;0.80;;;19.00;99.90;;;;;;4996667;28;20019;-70
2022/05/19 04:09:19;;;;;;;3.28;0.57;;;19.00;99.90;;;;;;4996225;28;20124;-70
2022/05/19 04:11:47;;;;;;;1.27;0.40;;;18.60;99.90;;;;;;4996536;28;20023;-71
2022/05/19 04:14:15;;;;;;;2.25;0.60;;;18.40;99.90;;;;;;4996458;28;20121;-70
2022/05/19 04:16:42;;;;;;;1.85;0.90;;;18.20;99.90;;;;;;4996802;28;20030;-70
2022/05/19 04:19:10;;;;;;;2.33;0.90;;;18.20;99.90;;;;;;4996289;28;20060;-71
2022/05/19 04:21:38;;;;;;;2.80;0.93;;;18.30;99.90;;;;;;4996314;28;20034;-71
2022/05/19 04:24:06;;;;;;;1.90;0.50;;;18.40;99.90;;;;;;4994985;28;20487;-71
2022/05/19 04:26:33;;;;;;;1.20;0.47;;;18.30;99.90;;;;;;4996187;28;20097;-68
2022/05/19 04:29:01;;;;;;;2.58;0.70;;;18.30;99.90;;;;;;4996491;28;20019;-72
2022/05/19 04:31:28;;;;;;;1.42;0.70;;;18.40;99.90;;;;;;4996161;28;20023;-72
2022/05/19 04:33:55;;;;;;;1.10;0.70;;;18.30;99.90;;;;;;4995945;28;20386;-74
2022/05/19 04:36:23;;;;;;;2.50;0.50;;;18.30;99.90;;;;;;4996082;28;20018;-72
2022/05/19 04:38:50;;;;;;;4.75;1.05;;;18.20;99.90;;;;;;4995194;28;20081;-72
2022/05/19 04:41:17;;;;;;;2.45;0.50;;;18.20;99.90;;;;;;4996039;28;20056;-72
2022/05/19 04:43:44;;;;;;;2.47;0.70;;;18.10;99.90;;;;;;4995872;28;20036;-72
2022/05/19 04:46:12;;;;;;;5.18;0.90;;;18.10;99.90;;;;;;4995947;28;20109;-72
2022/05/19 04:48:39;;;;;;;4.15;1.10;;;18.00;99.90;;;;;;4995785;28;20034;-72
2022/05/19 04:51:06;;;;;;;3.13;0.90;;;18.10;99.90;;;;;;4995752;28;20102;-70
2022/05/19 04:53:34;;;;;;;2.65;0.50;;;18.10;99.90;;;;;;4995816;28;20038;-71
2022/05/19 04:56:02;;;;;;;2.75;0.50;;;17.90;99.90;;;;;;4995707;28;20429;-71
2022/05/19 04:58:29;;;;;;;3.13;0.70;;;17.70;99.90;;;;;;4994288;28;20023;-70
2022/05/19 05:00:57;;;;;;;3.78;1.00;;;17.70;99.90;;;;;;4994687;28;20042;-70
2022/05/19 05:03:24;;;;;;;4.43;0.77;;;17.50;99.90;;;;;;4995630;28;20027;-70
2022/05/19 05:05:51;;;;;;;2.33;0.65;;;17.40;99.90;;;;;;4995512;28;20018;-70
2022/05/19 05:08:19;;;;;;;2.55;0.60;;;17.40;99.90;;;;;;4995196;28;20042;-70
2022/05/19 05:10:46;;;;;;;3.50;0.82;;;17.30;99.90;;;;;;4995442;28;20022;-72
2022/05/19 05:13:16;;;;;;;3.25;1.10;;;17.30;99.90;;;;;;4994080;28;20019;-70
2022/05/19 05:15:44;;;;;;;3.83;0.75;;;17.30;99.90;;;;;;4995536;28;20018;-69
2022/05/19 05:18:11;;;;;;;4.45;0.70;;;17.40;99.90;;;;;;4995239;28;20392;-68
2022/05/19 05:20:41;;;;;;;3.75;0.80;;;17.50;99.90;;;;;;4993900;28;20061;-68
2022/05/19 05:23:09;;;;;;;1.85;0.47;;;17.60;99.90;;;;;;4993982;28;20431;-70
2022/05/19 05:25:37;;;;;;;4.45;0.70;;;17.60;99.90;;;;;;4994998;28;20114;-69
2022/05/19 05:28:04;;;;;;;3.28;0.60;;;17.50;99.90;;;;;;4993716;28;20554;-70
2022/05/19 05:30:32;;;;;;;3.72;0.88;;;17.40;99.90;;;;;;4995292;28;20022;-70
2022/05/19 05:33:11;;;;;;;2.60;0.60;;;17.30;99.90;;;;;;4993754;28;20018;-70
2022/05/19 05:35:39;;;;;;;5.05;2.20;;;17.30;99.90;;;;;;4994849;28;20037;-71
2022/05/19 05:38:06;;;;;;;3.00;0.80;;;17.20;99.90;;;;;;4994889;28;20026;-70
2022/05/19 05:40:34;;;;;;;2.33;0.77;;;17.20;99.90;;;;;;4994762;28;20022;-70
2022/05/19 05:43:10;;;;;;;2.72;0.60;;;17.10;99.90;;;;;;4994703;28;20026;-71
2022/05/19 05:45:40;;;;;;;6.60;1.23;;;17.00;99.90;;;;;;4993340;28;20030;-69
2022/05/19 05:48:08;;;;;;;3.13;1.00;;;16.90;99.90;;;;;;4993211;28;20566;-69
2022/05/19 05:50:36;;;;;;;3.97;1.02;;;16.90;99.90;;;;;;4994452;28;20050;-69
2022/05/19 05:53:04;;;;;;;2.30;0.73;;;17.00;99.90;;;;;;4994420;28;20480;-70
2022/05/19 05:55:32;;;;;;;2.42;0.60;;;17.00;99.90;;;;;;4994389;28;20025;-70
2022/05/19 05:57:59;;;;;;;3.13;1.10;;;17.00;99.90;;;;;;4993196;28;20029;-68
2022/05/19 06:00:27;;;;;;;1.80;0.82;;;17.00;99.90;;;;;;4994415;28;20030;-69
2022/05/19 06:02:54;;;;;;;3.15;0.50;;;16.90;99.90;;;;;;4994197;28;20018;-69
2022/05/19 06:05:22;;;;;;;1.88;0.70;;;16.80;99.90;;;;;;4992994;28;20027;-69
2022/05/19 06:07:49;;;;;;;2.38;1.10;;;16.70;99.90;;;;;;4992575;28;20022;-69
2022/05/19 06:10:17;;;;;;;1.90;0.75;;;16.70;99.90;;;;;;4994303;28;20061;-68
2022/05/19 06:12:45;;;;;;;2.83;0.80;;;16.60;99.90;;;;;;4994173;28;20026;-68
2022/05/19 06:15:14;;;;;;;2.67;0.52;;;16.50;99.90;;;;;;4992884;28;20126;-68
2022/05/19 06:17:42;;;;;;;4.25;0.70;;;16.40;99.90;;;;;;4994439;28;20023;-70
2022/05/19 06:20:13;;;;;;;4.63;0.88;;;16.20;99.90;;;;;;4994075;28;20510;-70
2022/05/19 06:22:42;;;;;;;1.95;0.68;;;16.10;99.90;;;;;;4994619;28;20020;-69
2022/05/19 06:25:12;;;;;;;2.00;0.50;;;16.00;99.90;;;;;;4994000;28;20391;-69
2022/05/19 06:27:40;;;;;;;3.43;0.70;;;15.90;99.90;;;;;;4993966;28;20026;-70
2022/05/19 06:30:08;;;;;;;1.27;0.65;;;15.80;99.90;;;;;;4993779;28;20050;-70
2022/05/19 06:32:37;;;;;;;1.90;0.50;;;15.80;99.90;;;;;;4993825;28;20442;-69
2022/05/19 06:35:05;;;;;;;2.05;0.80;;;15.70;99.90;;;;;;4994413;28;20042;-68
2022/05/19 06:37:32;;;;;;;3.60;0.90;;;15.60;99.90;;;;;;4993802;28;20034;-69
2022/05/19 06:40:00;;;;;;;3.95;0.75;;;15.50;99.90;;;;;;4993803;28;20478;-68
2022/05/19 06:42:27;;;;;;;5.30;0.80;;;15.40;99.90;;;;;;4993786;28;20033;-69
2022/05/19 06:44:56;;;;;;;2.17;0.68;;;15.30;99.90;;;;;;4993628;28;20027;-69
2022/05/19 06:47:23;;;;;;;1.30;0.57;;;15.30;99.90;;;;;;4993663;28;20022;-69
2022/05/19 06:49:52;;;;;;;4.35;1.20;;;15.10;99.90;;;;;;4993638;28;20077;-68
2022/05/19 06:52:23;;;;;;;4.03;1.02;;;15.00;99.90;;;;;;4992200;28;20049;-69
2022/05/19 06:54:53;;;;;;;3.47;1.20;;;15.00;99.90;;;;;;4993575;28;20101;-69
2022/05/19 06:57:22;;;;;;;3.17;0.90;;;14.90;99.90;;;;;;4993702;28;20464;-69
2022/05/19 06:59:51;;;;;;;1.33;0.73;;;14.90;99.90;;;;;;4991997;28;20169;-68
2022/05/19 07:02:20;;;;;;;3.90;0.80;;;14.90;99.90;;;;;;4993232;28;20383;-68
2022/05/19 07:04:47;;;;;;;4.63;1.02;;;14.90;99.90;;;;;;4991860;28;20031;-68
2022/05/19 07:07:15;;;;;;;1.95;1.00;;;14.80;99.90;;;;;;4993025;28;20014;-69
2022/05/19 07:09:44;;;;;;;2.95;0.80;;;14.60;99.90;;;;;;4992805;28;20121;-68
2022/05/19 07:12:12;;;;;;;2.58;0.80;;;14.50;99.90;;;;;;4993136;28;20546;-68
2022/05/19 07:14:40;;;;;;;2.72;0.73;;;14.40;99.90;;;;;;4993283;28;20499;-69
2022/05/19 07:17:08;;;;;;;2.83;0.80;;;14.30;99.90;;;;;;4993044;28;20436;-70
2022/05/19 07:22:22;;;;;;;3.25;0.85;;;14.10;99.90;;;;;;4993820;28;20387;-69
2022/05/19 07:24:51;;;;;;;2.42;0.93;;;14.10;99.90;;;;;;4994883;28;20026;-69
2022/05/19 07:27:18;;;;;;;1.95;0.70;;;14.00;99.90;;;;;;4997252;28;20050;-70
2022/05/19 07:29:46;;;;;;;4.55;1.27;;;13.90;99.90;;;;;;4995915;28;20026;-69
2022/05/19 07:32:14;;;;;;;2.92;1.00;;;13.80;99.90;;;;;;4997262;28;20018;-69
2022/05/19 07:34:42;;;;;;;3.08;1.08;;;13.70;99.90;;;;;;4995911;28;20022;-69
2022/05/19 07:37:11;;;;;;;2.63;1.13;;;13.70;99.90;;;;;;4997120;28;20101;-69
2022/05/19 07:39:38;;;;;;;2.08;1.00;;;13.70;99.90;;;;;;4997103;28;20023;-69
2022/05/19 07:42:06;;;;;;;2.75;1.10;;;13.60;99.90;;;;;;4996957;28;20022;-69
2022/05/19 07:44:33;;;;;;;2.75;1.40;;;13.70;99.90;;;;;;4996972;28;20015;-69
2022/05/19 07:47:01;;;;;;;4.22;1.40;;;13.60;99.90;;;;;;4996956;28;20015;-70
2022/05/19 07:49:28;;;;;;;3.40;1.10;;;13.60;99.90;;;;;;4995478;28;20407;-69
2022/05/19 07:51:55;;;;;;;3.28;1.30;;;13.60;99.90;;;;;;4995571;28;20391;-70
2022/05/19 07:54:26;;;;;;;3.85;1.05;;;13.60;99.90;;;;;;4996808;28;20065;-68
2022/05/19 07:56:54;;;;;;;5.38;1.40;;;13.50;99.90;;;;;;4996825;28;20023;-68
2022/05/19 07:59:22;;;;;;;3.50;1.40;;;13.50;99.90;;;;;;4996674;28;20030;-68
2022/05/19 08:01:50;;;;;;;3.55;0.90;;;13.50;99.90;;;;;;4996534;28;20029;-68
2022/05/19 08:04:17;;;;;;;4.30;1.13;;;13.60;99.90;;;;;;4996547;28;20026;-68
2022/05/19 08:06:46;;;;;;;3.90;1.40;;;13.60;99.90;;;;;;4996579;28;20022;-69
2022/05/19 08:11:59;;;;;;;4.53;1.90;;;13.60;99.90;;;;;;4996954;28;20030;-69
2022/05/19 08:17:12;;;;;;;5.72;2.47;;;13.50;99.90;;;;;;4996554;28;20085;-69
2022/05/19 08:19:39;;;;;;;7.53;3.33;;;13.40;99.90;;;;;;4996341;28;20022;-69
2022/05/19 08:22:08;;;;;;;7.05;2.95;;;13.40;99.90;;;;;;4995041;28;20034;-68
2022/05/19 08:24:36;;;;;;;7.40;3.42;;;13.40;99.90;;;;;;4996178;28;20418;-69
2022/05/19 08:27:04;;;;;;;9.50;3.97;;;13.40;99.90;;;;;;4996222;28;20029;-69
2022/05/19 08:29:32;;;;;;;7.18;3.58;;;13.30;99.90;;;;;;4996121;28;20399;-68
2022/05/19 08:32:00;;;;;;;6.60;3.10;;;13.30;99.90;;;;;;4996125;28;20030;-68
2022/05/19 08:34:27;;;;;;;9.10;3.63;;;13.30;99.90;;;;;;4996063;28;20033;-68
2022/05/19 08:36:55;;;;;;;7.63;3.47;;;13.20;99.90;;;;;;4994662;28;20475;-69
2022/05/19 08:39:24;;;;;;;8.20;3.88;;;13.30;99.90;;;;;;4996509;28;20030;-68
2022/05/19 08:42:05;;;;;;;6.90;3.45;;;13.20;99.90;;;;;;4995095;28;20116;-68
2022/05/19 08:44:32;;;;;;;9.35;3.45;;;13.20;99.90;;;;;;4994647;28;20037;-67
2022/05/19 08:47:02;;;;;;;7.15;3.63;;;13.20;99.90;;;;;;4995973;28;20026;-68
2022/05/19 08:49:51;;;;;;;6.72;4.22;;;13.10;99.90;;;;;;4995685;28;20026;-68
2022/05/19 08:52:24;;;;;;;8.50;3.97;;;13.30;99.90;;;;;;4996191;28;20487;-68
2022/05/19 08:54:55;;;;;;;8.20;4.38;;;13.20;99.90;;;;;;4995864;28;20018;-68
2022/05/19 08:57:26;;;;;;;;;;;13.20;99.90;;;;;;4996692;28;20019;-68
2022/05/19 08:59:56;;;;;;;8.65;4.65;;;13.30;99.90;;;;;;4994459;28;20384;-68
2022/05/19 09:02:36;;;;;;;9.80;4.53;;;13.20;99.90;;;;;;4994081;28;20060;-68
2022/05/19 09:05:28;;;;;;;7.03;4.63;;;13.20;99.90;;;;;;4994283;28;20034;-68
2022/05/19 09:08:13;;;;;;;10.50;5.07;;;13.10;99.90;;;;;;4995407;28;20046;-69
2022/05/19 09:10:59;;;;;;;10.70;5.13;;;13.10;99.90;;;;;;4995432;28;20022;-69
2022/05/19 09:13:31;;;;;;;11.77;5.45;;;13.00;99.90;;;;;;4995401;28;20432;-69
2022/05/19 09:16:04;;;;;;;10.35;4.78;;;12.90;99.90;;;;;;4995961;28;20121;-69
2022/05/19 09:18:37;;;;;;;11.82;5.00;;;12.90;99.90;;;;;;4995401;28;20026;-69
2022/05/19 09:21:05;;;;;;;11.02;5.07;;;12.90;99.90;;;;;;4993988;28;20036;-69
2022/05/19 09:23:35;;;;;;;9.95;4.18;;;12.80;99.90;;;;;;4995174;28;20036;-71
2022/05/19 09:26:33;;;;;;;9.77;5.05;;;12.80;99.90;;;;;;4995363;28;20046;-68
2022/05/19 09:29:14;;;;;;;10.75;5.15;;;12.70;99.90;;;;;;4995011;28;20487;-70
2022/05/19 09:31:54;;;;;;;9.48;4.43;;;12.70;99.90;;;;;;4994881;28;20019;-70
2022/05/19 09:34:29;;;;;;;7.97;3.90;;;12.70;99.90;;;;;;4995049;28;20411;-69
2022/05/19 09:37:08;;;;;;;9.75;5.13;;;12.70;99.90;;;;;;4994957;28;20268;-70
2022/05/19 09:40:01;;;;;;;11.10;5.63;;;12.60;99.90;;;;;;4995035;28;20027;-69
2022/05/19 09:42:54;;;;;;;11.25;5.57;;;12.60;99.90;;;;;;4993526;28;20026;-69
2022/05/19 09:45:26;;;;;;;8.57;5.38;;;12.60;99.90;;;;;;4994962;28;20130;-70
2022/05/19 09:48:04;;;;;;;13.18;6.25;;;12.50;99.90;;;;;;4994245;28;20034;-68
2022/05/19 09:50:44;;;;;;;11.02;6.70;;;12.50;99.90;;;;;;4994925;28;20025;-70
2022/05/19 09:53:25;;;;;;;9.23;6.20;;;12.50;99.90;;;;;;4995128;28;20015;-68
2022/05/19 09:56:04;;;;;;;8.50;5.68;;;12.50;99.90;;;;;;4994617;28;20471;-68
2022/05/19 09:58:35;;;;;;;12.10;6.75;;;12.50;99.90;;;;;;4994674;28;20165;-68
2022/05/19 10:01:25;;;;;;;13.75;6.15;;;12.50;99.90;;;;;;4994771;28;20432;-68
2022/05/19 10:04:01;;;;;;;9.50;5.45;;;12.50;99.90;;;;;;4994612;28;20029;-70
2022/05/19 10:06:39;;;;;;;9.77;6.18;;;12.50;99.90;;;;;;4994601;28;20023;-70
2022/05/19 10:09:23;;;;;;;12.75;6.32;;;12.60;99.90;;;;;;4994152;28;20034;-70
2022/05/19 10:11:54;;;;;;;8.57;5.57;;;12.50;99.90;;;;;;4994306;28;20023;-70
2022/05/19 10:14:32;;;;;;;8.18;5.18;;;12.50;99.90;;;;;;4994256;28;20062;-70
2022/05/19 10:17:06;;;;;;;8.48;5.03;;;12.60;99.90;;;;;;4992984;28;20022;-70
2022/05/19 10:19:54;;;;;;;10.73;6.03;;;12.50;99.90;;;;;;4994139;28;20026;-68
2022/05/19 10:22:42;;;;;;;8.43;5.18;;;12.50;99.90;;;;;;4994142;28;20098;-71
2022/05/19 10:25:23;;;;;;;9.48;5.13;;;12.50;99.90;;;;;;4994098;28;20053;-71
2022/05/19 10:31:20;;;;;;;9.10;4.50;;;12.40;99.90;;;;;;4994041;28;20049;-70
2022/05/19 10:34:20;;;;;;;8.90;5.10;;;12.50;99.90;;;;;;4994503;28;20026;-70
2022/05/19 10:36:56;;;;;;;8.00;3.83;;;12.50;99.90;;;;;;4943147;28;20399;-71
2022/05/19 10:39:35;;;;;;;7.75;3.35;;;12.50;99.90;;;;;;4993909;28;20039;-71
2022/05/19 10:42:27;;;;;;;8.65;4.15;;;12.50;99.90;;;;;;4993809;28;20494;-71
2022/05/19 10:45:18;;;;;;;6.70;4.20;;;12.40;99.90;;;;;;4993688;28;20022;-70
2022/05/19 10:47:58;;;;;;;8.15;4.07;;;12.40;99.90;;;;;;4993684;28;20545;-70
2022/05/19 10:50:28;;;;;;;8.00;4.15;;;12.30;99.90;;;;;;4993906;28;20030;-70
2022/05/19 10:53:32;;;;;;;6.00;3.20;;;12.30;99.90;;;;;;4994123;28;20039;-70
2022/05/19 10:56:17;;;;;;;8.13;3.38;;;12.30;99.90;;;;;;4993581;28;20460;-70
2022/05/19 10:59:26;;;;;;;5.63;2.65;;;12.30;99.90;;;;;;4991695;28;20027;-70
2022/05/19 11:02:28;;;;;;;6.47;2.83;;;12.30;99.90;;;;;;4993600;28;20484;-70
2022/05/19 11:05:13;;;;;;;8.00;2.95;;;12.20;99.90;;;;;;4993488;28;20104;-70
2022/05/19 11:08:03;;;;;;;5.65;3.05;;;12.20;99.90;;;;;;4993624;28;20438;-68
2022/05/19 11:10:46;;;;;;;7.38;3.30;;;12.10;99.90;;;;;;4993434;28;20026;-69
2022/05/19 11:13:23;;;;;;;6.10;2.90;;;12.00;99.90;;;;;;4993500;28;20038;-69
2022/05/19 11:16:09;;;;;;;7.40;3.22;;;12.00;99.90;;;;;;4993616;28;20029;-68
2022/05/19 11:18:49;;;;;;;8.02;3.20;;;11.90;99.90;;;;;;4992155;28;20038;-68
2022/05/19 11:21:45;;;;;;;11.43;4.38;;;11.90;99.90;;;;;;4992086;28;20069;-68
2022/05/19 11:27:38;;;;;;;7.47;3.92;;;11.90;99.90;;;;;;4991261;28;20082;-70
2022/05/19 11:30:14;;;;;;;9.02;4.35;;;11.90;99.90;;;;;;4993781;28;20018;-70
2022/05/19 11:32:42;;;;;;;6.15;3.35;;;11.90;99.90;;;;;;4993793;28;20072;-70
2022/05/19 11:35:15;;;;;;;8.70;3.33;;;11.90;99.90;;;;;;4993250;28;20022;-69
2022/05/19 11:38:04;;;;;;;8.93;2.67;;;12.00;99.90;;;;;;4993234;28;20093;-70
2022/05/19 11:40:50;;;;;;;5.60;2.65;;;12.00;99.90;;;;;;4993260;28;20025;-70
2022/05/19 11:43:52;;;;;;;5.50;2.67;;;12.00;99.90;;;;;;4993224;28;20041;-70
2022/05/19 11:46:29;;;;;;;7.03;2.75;;;12.10;99.90;;;;;;4993243;28;20022;-70
2022/05/19 11:55:45;;;;;;;5.25;2.58;;;11.70;99.90;;;;;;4993218;28;20069;-70
2022/05/19 11:58:24;;;;;;;6.85;2.70;;;11.60;99.90;;;;;;4993062;28;20466;-70
2022/05/19 12:01:00;;;;;;;5.22;1.90;;;11.40;99.90;;;;;;4991763;28;20554;-69
2022/05/19 12:03:46;;;;;;;6.00;2.30;;;11.30;99.90;;;;;;4993516;28;20084;-70
2022/05/19 12:06:17;;;;;;;5.63;2.92;;;11.20;99.90;;;;;;4992983;28;20386;-70
2022/05/19 12:08:56;;;;;;;5.03;2.55;;;11.20;99.90;;;;;;4992915;28;20042;-70
2022/05/19 12:11:48;;;;;;;7.63;3.00;;;11.10;99.90;;;;;;4995446;28;20038;-70
2022/05/19 12:14:18;;;;;;;7.80;1.92;;;11.00;99.90;;;;;;4996705;28;20530;-70
2022/05/19 12:17:00;;;;;;;5.93;3.07;;;11.00;99.90;;;;;;4996459;28;20030;-71
2022/05/19 12:19:36;;;;;;;6.15;2.60;;;11.10;99.90;;;;;;4996893;28;20022;-71
2022/05/19 12:22:12;;;;;;;6.57;2.97;;;11.10;99.90;;;;;;4995940;28;20041;-70
2022/05/19 12:24:54;;;;;;;4.82;2.40;;;11.20;99.90;;;;;;4996324;28;20060;-70
2022/05/19 12:27:31;;;;;;;6.22;2.63;;;11.40;99.90;;;;;;4996288;28;20019;-71
2022/05/19 12:33:32;;;;;;;5.57;2.50;;;11.50;99.90;;;;;;4996577;28;20093;-70
2022/05/19 12:36:10;;;;;;;5.05;2.70;;;11.70;99.90;;;;;;4996687;28;20427;-70
2022/05/19 12:38:43;;;;;;;7.93;3.08;;;11.70;99.90;;;;;;4996108;28;20031;-70
2022/05/19 12:41:33;;;;;;;6.68;2.58;;;11.80;99.90;;;;;;4995940;28;20416;-70
2022/05/19 12:44:41;;;;;;;6.40;3.00;;;11.80;99.90;;;;;;4976083;28;20035;-70
2022/05/19 12:47:20;;;;;;;6.03;2.83;;;11.70;99.90;;;;;;4994647;28;20121;-69
2022/05/19 12:50:07;;;;;;;4.03;2.20;;;11.80;99.90;;;;;;4995845;28;20508;-69
2022/05/19 12:53:10;;;;;;;3.70;2.20;;;11.80;99.90;;;;;;4995850;28;20025;-69
2022/05/19 12:55:42;;;;;;;4.35;1.92;;;11.90;99.90;;;;;;4995824;28;20018;-70
2022/05/19 12:58:42;;;;;;;4.65;2.50;;;12.00;99.90;;;;;;4994475;28;20026;-68
2022/05/19 13:01:29;;;;;;;3.17;1.93;;;12.00;99.90;;;;;;4995817;28;20026;-69
2022/05/19 13:04:08;;;;;;;4.55;2.60;;;12.00;99.90;;;;;;4995571;28;20288;-69
2022/05/19 13:06:39;;;;;;;5.93;2.28;;;12.00;99.90;;;;;;4995813;28;20040;-70
2022/05/19 13:09:08;;;;;;;4.80;2.45;;;12.00;99.90;;;;;;4995259;28;20066;-69
2022/05/19 13:11:44;;;;;;;4.35;2.10;;;11.90;99.90;;;;;;4995564;28;20029;-69
2022/05/19 13:14:18;;;;;;;4.35;2.47;;;12.00;99.90;;;;;;4995375;28;20395;-69
2022/05/19 13:16:54;;;;;;;6.00;2.20;;;11.90;99.90;;;;;;4995428;28;20103;-69
2022/05/19 13:19:29;;;;;;;4.63;2.45;;;11.90;99.90;;;;;;4995250;28;20036;-69
2022/05/19 13:22:04;;;;;;;5.25;2.33;;;11.80;99.90;;;;;;4993289;28;20085;-70
2022/05/19 13:24:38;;;;;;;3.70;2.42;;;11.70;99.90;;;;;;4995811;28;20424;-69
2022/05/19 13:32:39;;;;;;;4.05;2.20;;;11.70;99.90;;;;;;4995332;28;20506;-69
2022/05/19 13:35:23;;;;;;;3.15;1.85;;;11.70;99.90;;;;;;4995023;28;20030;-69
2022/05/19 13:37:51;;;;;;;5.25;2.63;;;11.80;99.90;;;;;;4993676;28;20040;-69
2022/05/19 13:40:39;;;;;;;5.30;2.35;;;11.90;99.90;;;;;;4994861;28;20026;-70
2022/05/19 13:43:11;;;;;;;3.35;2.08;;;11.90;99.90;;;;;;4993602;28;20045;-68
2022/05/19 13:45:51;;;;;;;5.45;2.40;;;11.80;99.90;;;;;;4994865;28;20471;-69
2022/05/19 13:48:37;;;;;;;5.78;2.85;;;11.80;99.90;;;;;;4994782;28;20027;-69
2022/05/19 13:51:12;;;;;;;3.83;2.10;;;11.70;99.90;;;;;;4993546;28;20481;-68